Date,TemperatureHighF,TemperatureAvgF,TemperatureLowF,DewpointHighF,DewpointAvgF,DewpointLowF,HumidityHigh,HumidityAvg,HumidityLow,PressureMaxIn,PressureMinIn,WindSpeedMaxMPH,WindSpeedAvgMPH,GustSpeedMaxMPH,PrecipitationSumIn
2013-1-1,24.5,15.9,5.1,23.5,14.1,2.3,96,93,88,29.92,29.71,15,4,21,0.00
2013-1-2,14.3,6.4,-7.0,12.4,3.9,-10.0,99,89,85,30.21,29.86,15,3,23,0.00
2013-1-3,17.6,6.7,-7.0,16.1,3.8,-10.0,94,87,81,30.23,29.97,13,3,20,0.00
2013-1-4,24.0,21.5,17.7,22.2,19.8,16.2,95,93,91,29.97,29.77,19,5,33,0.00
2013-1-5,26.9,22.5,19.0,23.6,19.9,16.3,100,90,81,30.26,29.82,12,3,25,0.00
2013-1-6,27.9,24.7,19.1,26.6,23.0,16.6,96,93,88,30.21,29.94,10,3,18,0.00
2013-1-7,27.7,21.8,16.5,26.6,18.8,13.3,96,88,76,30.40,29.97,12,2,18,0.00
2013-1-8,33.7,28.2,24.2,23.8,21.5,18.8,85,76,64,30.37,30.24,15,4,23,0.00
2013-1-9,40.1,33.9,29.0,32.0,24.1,17.1,82,68,47,30.37,29.96,17,4,26,0.01
2013-1-10,32.4,28.2,24.0,28.5,22.2,19.6,94,78,69,30.59,30.02,13,2,22,0.00
2013-1-11,32.5,27.7,23.0,31.9,22.8,15.9,98,82,65,30.56,30.17,7,1,13,0.00
2013-1-12,46.6,40.2,32.0,43.4,38.8,31.5,99,95,86,30.19,30.07,15,2,19,0.16
2013-1-13,58.1,50.3,42.8,49.9,44.8,37.4,95,82,63,30.10,29.89,16,4,25,0.00
2013-1-14,54.4,39.3,25.3,50.8,36.0,21.1,97,88,79,30.29,29.78,13,3,29,0.09
2013-1-15,27.3,24.0,20.7,21.9,19.7,17.5,92,84,76,30.36,30.24,11,1,14,0.00
2013-1-16,27.7,23.8,21.5,26.9,21.9,17.8,97,93,80,30.24,29.80,9,2,16,0.00
2013-1-17,27.6,21.9,9.6,25.5,17.6,-1.0,95,84,59,30.13,29.79,13,3,25,0.00
2013-1-18,13.8,7.7,0.0,5.3,-1.1,-7.0,77,66,55,30.45,30.08,11,2,16,0.01
2013-1-19,36.7,28.5,11.1,23.6,16.7,4.7,84,61,51,30.31,29.84,21,4,33,0.00
2013-1-20,40.2,28.7,10.5,30.0,18.7,3.2,96,67,49,29.92,29.50,15,5,33,0.00
2013-1-21,17.3,11.6,6.1,11.9,5.3,-1.0,99,75,60,30.06,29.78,6,2,22,0.00
2013-1-22,13.2,5.9,-1.0,10.5,1.4,-9.0,92,81,67,30.09,29.77,9,2,19,0.00
2013-1-23,1.7,-3.1,-7.0,-8.0,-12.8,-16.0,72,62,51,30.17,30.05,11,2,18,0.00
2013-1-24,6.2,-2.0,-9.0,-7.0,-11.3,-15.0,78,64,48,30.34,30.12,17,3,19,0.00
2013-1-25,11.5,3.1,-5.0,1.6,-6.9,-13.0,84,62,45,30.38,30.09,24,3,25,0.00
2013-1-26,9.9,4.0,0.0,1.9,-1.3,-3.0,87,78,57,30.32,30.06,6,1,10,0.00
2013-1-27,16.5,9.6,2.3,3.5,0.3,-2.0,85,66,50,30.53,30.30,11,3,18,0.00
2013-1-28,20.3,15.5,12.5,15.9,6.9,-7.0,100,72,29,30.47,30.03,9,2,15,0.00
2013-1-29,33.0,24.9,17.6,31.1,23.5,15.7,97,95,88,30.17,30.04,6,1,7,0.01
2013-1-30,54.5,46.6,28.3,51.9,45.5,27.5,99,96,89,30.07,29.30,19,5,30,0.35
2013-1-31,51.9,41.9,26.9,50.8,40.4,21.5,98,95,80,29.30,28.85,14,4,30,0.82
2013-2-1,16.8,12.9,7.2,11.9,7.4,2.6,89,79,71,30.09,29.69,14,4,31,0.00
2013-2-2,16.3,10.4,3.4,11.7,4.4,-1.0,92,76,65,30.22,30.06,13,3,22,0.00
2013-2-3,19.8,13.2,7.6,11.3,8.2,5.0,90,80,64,30.07,29.76,17,2,23,0.00
2013-2-4,15.5,11.6,6.9,10.5,6.3,1.4,90,79,64,29.92,29.70,12,3,21,0.00
2013-2-5,21.9,13.6,4.7,14.6,6.5,0.9,87,74,59,30.03,29.90,13,2,14,0.00
2013-2-6,23.4,18.2,9.6,19.0,11.6,0.2,93,76,49,30.31,29.89,13,3,20,0.00
2013-2-7,20.0,12.2,3.4,6.7,2.2,-3.0,74,64,50,30.55,30.31,10,2,14,0.00
2013-2-8,16.2,14.3,11.6,14.2,10.9,3.4,92,87,63,30.44,29.85,21,10,30,0.00
2013-2-9,13.6,8.1,3.4,11.7,5.3,0.0,92,88,84,30.37,29.84,9,2,14,0.00
2013-2-10,29.0,17.1,2.9,22.0,11.2,0.0,85,77,61,30.50,30.29,10,1,17,0.15
2013-2-11,41.9,30.9,21.8,39.1,23.7,6.7,98,77,38,30.29,29.67,21,4,23,0.20
2013-2-12,30.2,26.8,23.0,27.0,24.5,20.8,96,91,86,29.88,29.57,19,5,38,0.01
2013-2-13,27.6,24.0,21.3,22.4,19.6,16.4,93,84,75,29.87,29.75,9,2,14,0.00
2013-2-14,32.1,26.3,18.9,23.1,19.6,15.4,87,76,64,30.00,29.73,10,2,14,0.03
2013-2-15,37.6,31.4,25.8,28.1,24.7,19.0,94,77,64,29.97,29.88,16,3,27,0.03
2013-2-16,25.8,20.9,13.5,22.0,15.9,4.6,92,81,67,29.97,29.84,5,1,12,0.01
2013-2-17,13.4,7.5,1.5,5.0,1.2,-4.0,82,75,67,29.84,29.60,15,3,20,0.00
2013-2-18,17.7,6.0,0.1,1.0,-2.4,-4.0,80,68,44,30.13,29.84,13,3,25,0.00
2013-2-19,38.2,27.2,18.8,30.6,14.1,-9.0,96,62,26,30.16,29.58,10,4,20,0.00
2013-2-20,29.7,17.7,13.7,28.7,15.6,11.4,96,91,87,29.78,29.57,16,4,30,0.00
2013-2-21,18.1,13.5,8.9,15.2,9.7,6.0,93,85,70,30.38,29.71,19,3,27,0.02
2013-2-22,29.4,23.2,14.3,20.0,17.3,12.6,94,79,65,30.45,30.27,11,3,18,0.00
2013-2-23,25.4,24.1,23.1,21.6,20.5,19.3,94,86,78,30.27,30.22,16,3,20,0.00
2013-2-24,30.4,27.4,24.5,30.0,26.5,23.5,97,96,96,29.94,29.78,7,2,15,0.00
2013-2-25,31.0,25.8,21.5,27.9,24.1,20.1,96,93,88,30.26,29.94,4,1,7,0.00
2013-2-26,30.6,27.3,24.8,27.5,24.9,22.3,100,91,82,30.33,30.12,26,6,32,0.04
2013-2-27,30.1,27.2,24.8,29.6,26.3,23.0,98,97,93,30.13,29.65,33,14,40,0.00
2013-2-28,33.2,29.6,25.2,32.9,29.0,24.2,100,98,96,29.64,29.58,10,1,14,0.18
2013-3-1,32.2,27.2,23.3,31.4,26.3,22.0,100,96,94,29.77,29.57,3,1,10,0.08
2013-3-2,28.6,23.8,18.6,26.7,22.4,16.9,96,94,91,29.76,29.70,4,1,9,0.01
2013-3-3,24.7,19.8,16.4,22.1,18.1,14.7,95,93,89,29.74,29.67,8,2,14,0.00
2013-3-4,25.7,19.3,15.7,22.3,17.3,14.0,94,92,86,29.88,29.67,12,3,27,0.00
2013-3-5,34.8,25.0,17.8,33.5,22.9,16.1,95,92,84,30.11,29.83,12,2,15,0.00
2013-3-6,27.5,26.0,23.1,26.7,24.7,21.5,97,95,89,30.17,30.04,28,12,40,0.00
2013-3-7,29.4,24.3,21.6,27.1,22.5,20.0,96,93,87,30.17,30.10,26,3,26,0.00
2013-3-8,33.5,26.5,22.5,29.1,23.9,21.2,97,90,79,30.31,30.08,13,1,17,0.00
2013-3-9,45.8,35.5,24.4,31.0,22.1,17.0,88,61,34,30.36,30.27,7,1,10,0.16
2013-3-10,49.1,38.1,27.6,28.8,22.8,16.7,71,55,35,30.37,30.21,9,2,14,0.00
2013-3-11,48.8,39.4,32.5,34.4,27.2,19.4,84,63,33,30.22,30.01,13,2,24,0.00
2013-3-12,46.1,41.9,31.6,45.1,40.4,30.8,98,95,83,30.02,29.68,18,5,26,0.61
2013-3-13,35.4,31.1,28.2,30.8,26.2,21.1,97,83,63,29.80,29.76,9,2,15,0.00
2013-3-14,25.3,16.6,11.0,22.0,12.5,6.4,90,84,69,29.89,29.75,13,-1,19,0.00
2013-3-15,26.8,19.0,8.4,23.7,12.8,2.8,94,78,48,29.91,29.65,12,2,22,0.02
2013-3-16,27.9,20.4,12.8,19.1,12.3,9.8,93,72,51,29.90,29.73,7,1,10,0.05
2013-3-17,25.2,17.4,9.6,13.2,7.8,1.1,90,67,46,30.34,29.90,6,1,15,0.01
2013-3-18,27.1,18.1,7.3,17.9,3.1,-4.0,93,53,35,30.47,30.15,13,4,20,0.00
2013-3-19,25.1,22.2,18.8,23.9,20.8,16.8,96,94,92,30.14,29.74,28,10,34,0.00
2013-3-20,23.3,18.9,15.5,21.8,17.3,13.5,94,93,92,29.80,29.71,19,3,19,0.00
2013-3-21,29.4,20.4,13.1,24.5,17.0,11.0,93,87,73,29.81,29.65,11,2,18,0.04
2013-3-22,27.9,19.9,13.4,22.4,16.5,10.2,93,87,72,29.77,29.66,14,2,18,0.02
2013-3-23,30.3,23.8,19.0,20.3,18.2,17.0,93,80,62,29.83,29.70,10,3,18,0.01
2013-3-24,32.3,26.2,22.1,23.2,20.4,18.3,88,79,69,29.88,29.79,6,1,11,0.01
2013-3-25,31.7,27.3,22.2,24.6,21.8,18.6,98,80,68,29.82,29.58,18,4,26,0.00
2013-3-26,35.3,28.7,23.9,26.2,22.7,19.5,95,79,56,29.85,29.61,4,1,7,0.01
2013-3-27,40.3,31.8,25.3,29.1,24.3,18.7,89,74,60,29.93,29.80,8,1,13,0.00
2013-3-28,38.6,32.6,28.1,32.0,29.0,26.4,95,87,75,30.09,29.91,5,1,11,0.04
2013-3-29,41.0,33.8,29.9,33.2,29.6,26.9,93,85,69,30.11,30.04,12,2,16,0.00
2013-3-30,43.8,35.6,27.9,29.0,23.5,15.0,90,64,38,30.13,30.06,4,1,11,0.02
2013-3-31,46.1,38.0,32.8,32.6,23.7,16.7,97,59,40,30.12,29.72,11,4,21,0.05
2013-4-1,43.9,31.2,20.0,38.8,27.9,13.4,98,88,59,29.79,29.53,7,2,26,0.30
2013-4-2,23.9,19.6,15.9,19.8,13.8,9.8,92,78,67,29.93,29.77,7,4,30,0.00
2013-4-3,32.3,22.8,15.7,16.5,12.1,9.2,90,64,41,30.22,29.92,7,4,34,0.02
2013-4-4,41.4,30.7,18.8,20.5,16.5,11.9,81,57,38,30.33,29.97,7,3,20,0.00
2013-4-5,44.2,35.7,26.0,26.8,21.1,15.1,84,56,42,29.97,29.73,7,3,20,0.00
2013-4-6,35.4,26.8,16.6,21.3,10.9,6.4,83,53,35,30.34,29.91,5,2,11,0.00
2013-4-7,49.2,38.8,28.6,37.1,21.7,8.2,78,51,34,30.30,29.91,13,5,33,0.00
2013-4-8,52.7,44.3,34.5,37.2,32.8,29.1,90,67,43,30.09,29.92,10,2,18,0.00
2013-4-9,52.9,47.4,40.1,46.9,40.9,33.7,97,79,55,30.04,29.82,12,4,22,0.17
2013-4-10,50.5,43.7,38.5,47.4,42.1,37.9,98,94,80,30.02,29.87,5,1,11,1.04
2013-4-11,38.4,32.6,27.6,37.9,30.1,21.0,98,91,72,30.18,29.88,6,1,12,0.13
2013-4-12,28.8,26.4,24.4,26.5,25.1,22.8,97,95,78,30.18,29.88,14,7,29,0.00
2013-4-13,39.9,32.6,26.7,38.2,31.2,26.0,98,94,81,29.97,29.85,3,1,11,0.39
2013-4-14,36.8,32.3,28.8,30.8,28.2,23.8,96,85,72,30.26,29.94,4,1,16,0.13
2013-4-15,49.7,39.5,28.8,34.2,29.2,23.7,83,67,54,30.39,30.27,5,2,12,0.00
2013-4-16,54.0,47.5,39.8,50.5,41.6,31.6,97,80,66,30.33,30.00,9,4,28,0.37
2013-4-17,52.7,43.9,35.5,44.2,33.9,24.7,96,70,45,30.37,30.04,4,1,19,0.00
2013-4-18,53.1,44.0,37.7,44.2,31.2,24.6,95,61,48,30.39,30.08,11,5,26,0.00
2013-4-19,61.7,55.0,43.3,57.3,52.3,42.0,98,91,76,30.07,29.53,14,5,27,0.56
2013-4-20,42.9,35.5,25.8,41.6,29.8,17.6,97,80,58,30.26,29.64,5,3,21,0.19
2013-4-21,42.4,31.8,20.6,23.3,16.9,10.4,81,56,33,30.70,30.26,3,1,12,0.00
2013-4-22,45.3,35.5,28.7,26.7,19.4,11.5,88,53,35,30.74,30.57,13,7,30,0.00
2013-4-23,34.4,30.0,25.6,33.9,28.4,23.1,98,94,88,30.57,30.20,16,9,24,0.00
2013-4-24,68.1,52.9,34.5,49.3,40.1,21.9,99,68,21,30.20,29.68,13,5,25,0.00
2013-4-25,55.2,41.8,31.9,49.5,31.3,24.0,95,68,43,30.31,29.67,20,8,43,0.09
2013-4-26,49.4,42.6,38.3,33.0,26.8,21.2,65,53,46,30.45,30.28,19,5,30,0.00
2013-4-27,59.9,47.4,36.8,35.8,29.4,23.5,77,52,29,30.44,30.30,6,2,12,0.00
2013-4-28,62.9,53.5,45.2,38.7,32.7,25.9,60,46,37,30.32,30.14,13,6,25,0.00
2013-4-29,58.3,50.4,45.8,40.2,36.0,28.3,67,58,50,30.23,30.15,12,5,25,0.00
2013-4-30,62.6,53.1,43.3,38.8,33.2,25.0,64,47,36,30.31,30.22,13,4,23,0.00
2013-5-1,66.1,57.2,46.8,37.0,30.5,24.4,51,37,21,30.43,30.31,11,4,20,0.00
2013-5-2,73.9,60.9,46.2,42.0,37.0,25.5,65,42,27,30.42,30.30,20,5,31,0.00
2013-5-3,59.0,48.9,38.0,41.6,34.6,24.0,79,59,41,30.50,30.37,22,10,36,0.00
2013-5-4,65.2,55.8,46.4,43.6,37.0,28.1,73,51,26,30.38,30.21,13,6,25,0.00
2013-5-5,64.3,52.8,38.6,34.8,29.3,24.6,60,42,26,30.27,30.20,11,4,20,0.00
2013-5-6,66.9,57.3,46.4,43.2,34.1,26.5,64,43,25,30.22,30.10,13,6,23,0.00
2013-5-7,73.4,63.3,52.8,51.4,43.0,31.1,80,51,27,30.13,30.05,12,6,21,0.00
2013-5-8,63.6,56.6,51.4,55.9,52.7,46.9,99,87,67,30.16,30.01,19,8,35,0.38
2013-5-9,59.8,53.8,48.2,56.2,50.9,46.2,99,90,72,30.01,29.88,9,4,16,0.70
2013-5-10,70.4,60.7,51.2,58.0,51.5,48.3,94,73,50,29.96,29.82,12,5,21,0.01
2013-5-11,62.4,57.0,50.8,59.1,54.1,49.1,97,90,72,29.82,29.64,10,5,22,0.28
2013-5-12,56.9,46.2,34.9,49.3,38.2,24.9,95,75,49,29.80,29.60,13,8,30,0.00
2013-5-13,41.7,34.9,30.8,29.3,27.5,25.7,85,74,59,30.09,29.75,20,9,40,0.00
2013-5-14,48.0,39.9,31.4,34.4,28.2,25.0,79,63,51,30.10,30.03,10,5,19,0.00
2013-5-15,54.1,46.8,38.5,49.4,35.4,23.8,95,66,39,30.07,29.63,15,5,33,0.02
2013-5-16,68.5,57.2,45.4,46.4,39.9,31.1,81,55,34,29.84,29.65,17,10,39,0.00
2013-5-17,60.7,49.2,39.5,43.2,37.6,34.2,90,66,43,30.24,29.83,6,2,25,0.00
2013-5-18,66.7,57.1,47.5,44.0,38.0,32.9,71,50,36,30.30,30.21,9,3,17,0.00
2013-5-19,61.7,52.5,47.8,51.4,47.1,42.2,97,82,56,30.29,30.14,11,4,24,0.09
2013-5-20,69.7,59.7,50.2,62.4,56.8,49.4,98,91,75,30.14,29.96,14,5,30,0.00
2013-5-21,79.4,67.1,48.8,65.3,60.3,48.3,98,80,55,29.98,29.79,18,5,33,0.44
2013-5-22,75.8,63.2,49.3,66.9,60.7,48.8,99,92,67,29.89,29.77,12,4,25,1.03
2013-5-23,71.2,65.0,60.2,65.1,60.1,55.7,96,85,70,29.80,29.70,10,5,27,0.06
2013-5-24,60.7,47.9,36.5,59.6,47.1,36.0,98,97,94,29.95,29.63,9,3,27,0.60
2013-5-25,38.1,35.4,32.6,37.6,34.9,32.1,99,98,98,29.95,29.86,7,4,23,0.55
2013-5-26,43.9,36.9,32.1,41.6,36.0,31.6,99,97,86,30.12,29.82,13,5,28,0.31
2013-5-27,61.2,50.6,39.1,42.1,37.9,34.5,89,64,41,30.18,30.11,13,6,24,0.00
2013-5-28,66.3,56.9,48.5,50.7,40.4,33.5,88,55,37,30.21,30.10,8,3,21,0.00
2013-5-29,64.2,56.2,50.6,64.2,55.5,49.5,100,98,87,30.10,29.96,10,2,28,0.57
2013-5-30,76.8,68.5,60.1,67.5,63.0,59.2,98,83,65,30.08,30.00,11,6,28,0.00
2013-5-31,81.9,73.8,65.7,68.0,62.6,58.8,87,69,50,30.08,29.92,9,5,22,0.00
2013-6-1,82.6,74.3,67.6,67.2,62.8,60.0,80,68,52,29.94,29.81,10,6,26,0.00
2013-6-2,81.7,69.7,60.2,68.7,63.7,57.9,97,83,56,29.81,29.65,10,6,27,1.42
2013-6-3,64.6,57.3,45.9,58.9,51.8,36.0,95,82,67,29.85,29.75,12,7,31,0.00
2013-6-4,61.1,51.1,41.0,48.8,42.7,35.6,86,74,59,30.13,29.84,12,4,29,0.00
2013-6-5,64.8,55.9,44.2,49.7,44.1,37.6,85,66,48,30.19,30.10,6,2,14,0.00
2013-6-6,62.7,55.7,49.5,50.9,43.3,32.7,96,64,46,30.16,30.05,12,6,25,0.20
2013-6-7,49.4,45.8,43.3,48.3,45.2,42.8,99,98,90,30.05,29.88,16,11,33,0.85
2013-6-8,59.8,52.9,45.1,58.1,52.3,44.8,100,98,88,30.02,29.75,10,5,20,0.36
2013-6-9,66.6,58.5,51.6,58.4,53.7,50.8,98,85,67,30.19,30.01,9,4,19,0.00
2013-6-10,61.7,57.7,52.9,55.5,52.0,44.7,99,82,55,30.20,29.93,22,7,39,0.41
2013-6-11,54.5,51.6,49.5,54.5,51.5,49.2,100,100,99,29.93,29.58,18,8,32,1.35
2013-6-12,59.0,51.7,48.1,56.5,50.4,47.7,100,95,79,29.89,29.58,10,4,27,0.28
2013-6-13,56.7,50.5,45.2,51.6,47.9,44.5,99,91,75,29.86,29.71,16,6,30,0.56
2013-6-14,66.4,55.5,45.3,58.5,51.0,44.8,100,86,63,29.85,29.70,9,2,17,0.01
2013-6-15,66.9,59.0,49.2,53.3,47.5,43.3,89,67,49,29.95,29.84,10,4,22,0.00
2013-6-16,66.9,58.0,52.4,57.6,50.4,40.2,98,77,57,29.94,29.69,11,6,32,0.07
2013-6-17,73.1,61.3,53.7,62.1,57.4,52.6,98,88,60,29.89,29.77,10,5,27,0.28
2013-6-18,58.4,54.6,50.4,57.8,53.1,47.6,100,95,84,29.98,29.86,7,1,13,0.01
2013-6-19,64.0,54.9,45.2,50.9,44.5,34.9,95,69,51,30.18,29.97,5,2,13,0.00
2013-6-20,69.9,60.7,49.9,51.8,44.4,33.1,75,56,32,30.26,30.17,7,2,17,0.00
2013-6-21,75.3,65.4,55.9,57.7,52.9,48.0,89,66,42,30.24,30.18,9,3,18,0.00
2013-6-22,76.4,68.4,62.3,64.7,60.2,50.5,89,76,54,30.19,30.07,9,5,19,0.00
2013-6-23,81.8,72.3,65.6,71.6,65.0,60.7,94,79,61,30.11,29.94,12,7,24,0.08
2013-6-24,81.7,69.6,61.6,73.0,65.0,59.0,96,86,70,29.99,29.90,15,8,30,0.29
2013-6-25,80.1,69.1,62.5,69.9,64.1,58.1,98,85,63,29.93,29.73,13,7,25,0.48
2013-6-26,67.4,65.1,62.9,65.7,63.6,61.9,99,95,87,29.83,29.69,9,4,20,0.28
2013-6-27,75.7,67.6,62.3,68.9,65.1,62.0,99,92,74,29.82,29.66,10,5,19,0.23
2013-6-28,73.0,63.2,56.1,67.6,61.4,56.1,100,94,73,29.67,29.45,14,6,25,1.32
2013-6-29,75.9,67.1,61.7,64.4,61.7,59.8,98,84,60,29.66,29.44,9,3,21,0.00
2013-6-30,77.4,67.7,60.2,68.0,62.8,59.3,98,85,64,29.89,29.66,9,2,18,0.08
2013-7-1,68.4,65.4,62.4,67.2,64.5,61.3,99,97,92,30.03,29.88,7,3,15,0.34
2013-7-2,77.7,70.1,64.0,70.6,67.0,62.7,99,91,72,30.13,30.00,7,3,20,0.93
2013-7-3,79.1,71.1,66.2,71.2,67.6,65.6,99,89,70,30.18,30.09,10,5,23,0.02
2013-7-4,83.2,74.5,67.1,72.7,69.0,65.9,97,84,63,30.17,30.06,10,6,21,0.00
2013-7-5,83.3,74.7,67.4,73.2,69.5,65.3,97,85,64,30.13,30.01,10,5,21,0.42
2013-7-6,77.7,70.8,66.9,70.1,66.2,56.7,97,86,69,30.07,30.00,9,6,27,0.00
2013-7-7,83.5,72.5,66.6,72.9,65.7,55.6,98,80,63,30.03,29.90,8,4,19,0.17
2013-7-8,74.7,69.6,66.1,68.9,66.6,65.2,97,91,79,30.03,29.89,10,4,20,0.01
2013-7-9,73.7,67.5,63.4,69.8,65.8,62.9,99,95,80,30.07,30.00,7,2,14,0.09
2013-7-10,76.7,69.0,64.4,70.7,66.9,64.2,100,94,78,30.00,29.74,9,4,21,0.37
2013-7-11,75.5,67.8,61.4,68.6,63.6,54.3,97,87,72,29.98,29.71,9,4,22,0.00
2013-7-12,71.9,64.4,57.9,62.7,57.9,54.5,90,80,65,30.18,29.98,10,5,20,0.00
2013-7-13,66.8,63.6,59.4,65.1,58.9,51.4,98,85,66,30.31,30.18,12,5,22,0.00
2013-7-14,80.0,71.9,65.2,71.8,67.6,64.6,99,87,70,30.31,30.21,5,2,13,0.00
2013-7-15,83.3,75.0,67.7,72.0,68.1,62.4,96,80,62,30.21,30.11,6,2,12,0.00
2013-7-16,82.1,73.8,66.7,71.7,65.6,62.1,86,76,60,30.19,30.15,4,2,15,0.00
2013-7-17,85.4,76.6,68.1,72.8,68.0,63.4,91,76,52,30.17,29.95,10,4,25,0.03
2013-7-18,84.9,76.7,68.9,74.4,70.1,67.3,96,81,64,30.00,29.89,9,4,21,0.00
2013-7-19,83.9,76.2,64.0,75.1,69.3,62.5,97,80,62,29.90,29.69,14,8,33,0.61
2013-7-20,76.7,68.7,61.8,68.5,63.7,59.7,97,84,73,29.82,29.65,12,8,28,0.01
2013-7-21,74.4,66.5,59.0,65.3,60.7,57.3,94,82,67,29.97,29.82,10,3,16,0.00
2013-7-22,69.5,64.4,58.7,67.2,61.7,52.7,99,91,67,30.01,29.85,8,3,17,0.49
2013-7-23,69.7,64.2,60.5,68.4,63.6,60.5,100,98,89,29.85,29.56,9,4,20,1.75
2013-7-24,70.7,62.7,47.6,64.7,59.0,44.9,97,88,69,30.00,29.58,13,4,26,0.01
2013-7-25,65.1,54.5,44.3,56.8,49.5,42.1,94,84,68,30.13,30.00,6,3,12,0.00
2013-7-26,65.4,59.1,55.3,59.5,55.1,51.8,95,87,75,30.08,30.00,7,2,13,0.00
2013-7-27,77.7,66.9,57.0,60.7,56.6,50.7,92,71,45,30.04,29.94,8,3,23,0.00
2013-7-28,70.6,63.5,57.9,65.3,61.0,55.7,96,92,82,29.99,29.93,12,3,23,0.09
2013-7-29,74.4,65.6,57.5,64.7,59.9,51.4,98,83,62,30.08,29.94,7,4,18,0.02
2013-7-30,71.2,61.7,52.3,59.9,55.1,50.3,94,80,61,30.12,30.05,8,4,18,0.00
2013-7-31,74.2,64.5,55.0,64.0,56.3,52.0,93,76,57,30.14,30.01,7,3,13,0.00
2013-8-1,69.7,62.2,59.0,62.1,58.1,52.2,98,87,72,30.01,29.82,11,5,24,0.33
2013-8-2,72.6,64.0,57.7,62.6,57.9,53.8,99,82,59,29.84,29.78,9,4,21,0.00
2013-8-3,70.6,61.3,52.9,60.0,55.1,51.6,98,81,58,29.87,29.77,10,5,26,0.04
2013-8-4,69.1,58.0,51.3,57.9,52.9,48.2,95,84,62,29.92,29.80,10,5,21,0.18
2013-8-5,66.0,56.0,47.8,50.6,47.7,43.1,97,75,52,30.07,29.91,8,3,20,0.00
2013-8-6,69.7,61.3,53.8,56.3,49.7,43.0,84,66,51,30.12,30.05,5,1,15,0.00
2013-8-7,71.5,62.9,57.6,61.8,56.1,52.7,94,79,56,30.15,30.03,11,4,22,0.00
2013-8-8,76.3,67.7,60.9,67.5,64.0,59.3,98,88,72,30.03,29.96,8,3,20,0.00
2013-8-9,70.4,67.4,65.8,69.5,66.2,64.5,99,96,92,29.96,29.75,10,4,23,0.55
2013-8-10,70.4,62.8,53.0,64.5,55.2,48.0,96,77,51,30.04,29.78,11,6,26,0.00
2013-8-11,70.2,60.3,51.9,57.1,51.8,46.9,87,74,56,30.08,30.00,9,4,16,0.00
2013-8-12,72.1,63.2,55.0,60.9,55.3,50.2,88,76,59,30.02,29.90,7,3,17,0.00
2013-8-13,66.2,61.9,57.6,64.0,59.1,56.1,99,91,81,29.90,29.67,9,3,19,1.28
2013-8-14,59.2,52.8,47.6,58.4,50.1,46.2,98,91,81,29.99,29.69,14,6,35,0.01
2013-8-15,65.4,55.5,48.2,55.0,49.1,43.9,90,79,64,30.12,29.99,8,5,19,0.01
2013-8-16,70.3,60.4,51.4,57.4,51.8,47.7,91,74,54,30.19,30.08,8,4,19,0.00
2013-8-17,73.6,63.8,54.6,60.6,55.0,50.0,88,74,56,30.27,30.19,7,1,13,0.00
2013-8-18,70.4,63.6,59.8,58.7,54.3,49.4,84,72,59,30.27,30.07,9,3,20,0.00
2013-8-19,72.7,64.0,57.5,62.7,57.5,53.8,91,80,61,30.08,29.97,11,6,22,0.00
2013-8-20,76.8,67.0,58.5,64.9,58.8,52.8,87,76,57,30.10,29.99,10,5,19,0.00
2013-8-21,78.2,69.4,62.2,67.0,60.8,56.8,86,75,54,30.14,30.00,9,4,18,0.00
2013-8-22,78.8,69.5,61.2,66.8,61.6,56.7,98,77,53,30.00,29.81,9,5,23,1.06
2013-8-23,67.7,59.9,51.5,60.5,55.0,46.0,98,84,67,30.16,29.83,4,1,14,0.01
2013-8-24,71.3,59.6,49.4,56.2,49.6,45.3,86,71,46,30.34,30.16,7,2,12,0.00
2013-8-25,72.4,63.9,55.8,58.0,53.3,45.9,84,69,53,30.37,30.13,8,4,17,0.01
2013-8-26,69.3,62.6,57.5,64.6,59.8,54.4,99,91,82,30.14,29.88,14,8,30,0.10
2013-8-27,75.6,66.1,61.2,69.7,64.1,60.9,99,94,78,29.91,29.83,7,2,15,0.00
2013-8-28,78.9,69.0,60.6,69.3,64.8,59.7,98,87,68,29.97,29.83,13,2,21,0.01
2013-8-29,67.5,60.9,57.7,63.4,59.4,56.3,100,95,82,30.07,29.91,11,4,21,0.06
2013-8-30,78.4,67.3,58.4,66.3,62.6,58.1,100,86,61,30.02,29.77,11,5,22,0.01
2013-8-31,73.6,67.2,62.2,69.4,65.2,59.7,99,93,77,29.80,29.74,10,5,21,0.40
2013-9-1,72.7,67.3,64.0,69.0,65.5,63.2,98,94,79,29.85,29.77,8,2,17,0.04
2013-9-2,76.3,67.4,59.2,69.9,64.8,57.9,100,92,73,29.82,29.67,11,2,31,1.67
2013-9-3,65.3,60.6,54.8,60.8,57.2,53.2,97,89,73,29.82,29.68,11,7,24,0.00
2013-9-4,67.7,60.0,53.5,58.6,54.1,50.1,98,82,67,29.92,29.81,13,6,28,0.00
2013-9-5,61.9,54.0,42.7,55.4,48.1,38.1,100,81,55,30.18,29.84,7,2,16,0.04
2013-9-6,60.7,50.3,40.3,44.7,39.7,34.7,87,68,49,30.27,30.07,17,4,31,0.00
2013-9-7,66.7,56.5,51.7,52.1,44.7,38.3,90,66,37,30.08,29.83,17,10,30,0.01
2013-9-8,59.0,52.1,41.5,54.6,47.3,37.6,99,84,63,30.14,29.77,14,4,30,0.02
2013-9-9,64.0,52.3,39.7,51.5,41.6,34.7,89,69,35,30.24,30.07,9,3,21,0.00
2013-9-10,73.1,63.9,55.1,69.4,61.7,51.5,98,93,82,30.08,29.98,14,5,30,0.15
2013-9-11,84.4,74.9,63.8,72.9,69.0,60.9,96,83,60,30.05,29.89,16,8,33,0.51
2013-9-12,78.0,67.2,60.9,72.0,63.7,60.3,98,89,74,29.89,29.61,13,5,24,1.33
2013-9-13,60.9,55.6,47.3,60.3,54.9,46.8,99,98,94,29.83,29.60,7,2,16,0.16
2013-9-14,51.9,48.1,44.7,50.0,46.8,43.6,99,95,88,30.09,29.82,9,3,16,0.01
2013-9-15,60.9,50.8,42.1,51.7,45.7,38.8,96,83,65,30.16,30.04,11,5,21,0.00
2013-9-16,52.6,46.1,36.1,50.2,43.5,32.3,97,91,82,30.31,30.00,8,3,20,0.07
2013-9-17,55.9,45.0,35.5,44.7,37.7,31.7,89,76,53,30.48,30.31,9,3,17,0.00
2013-9-18,66.6,54.3,46.0,47.5,40.2,30.2,74,59,39,30.35,30.14,11,7,23,0.00
2013-9-19,72.9,61.6,53.2,54.9,46.1,31.4,73,58,34,30.15,30.04,12,6,23,0.00
2013-9-20,70.6,63.3,57.1,58.4,51.9,45.1,83,67,53,30.07,29.94,10,4,23,0.00
2013-9-21,66.9,59.8,53.9,58.8,53.8,44.9,95,82,48,29.95,29.61,14,6,33,0.14
2013-9-22,59.6,50.6,41.5,58.5,47.9,39.9,98,90,77,29.89,29.55,12,6,31,0.52
2013-9-23,50.1,42.0,37.3,42.3,38.9,36.0,96,89,72,30.07,29.87,6,3,19,0.00
2013-9-24,56.2,45.5,37.3,44.3,39.7,35.5,94,81,59,30.05,29.90,9,4,24,0.00
2013-9-25,63.1,51.6,43.6,52.6,45.4,39.6,94,80,65,29.99,29.90,8,2,17,0.00
2013-9-26,56.5,47.9,40.5,48.1,44.1,39.0,97,87,67,30.18,29.97,6,2,12,0.00
2013-9-27,51.9,47.6,45.0,49.1,45.8,43.7,98,93,87,30.32,30.15,4,1,11,0.00
2013-9-28,64.9,56.3,48.1,54.7,49.5,46.5,95,79,60,30.37,30.23,6,2,11,0.00
2013-9-29,63.5,56.7,49.6,53.3,49.0,45.9,88,76,58,30.24,30.08,8,3,16,0.00
2013-9-30,64.8,56.4,48.8,52.2,48.6,45.6,89,76,56,30.10,29.98,6,2,11,0.00
2013-10-1,70.2,59.0,52.1,57.8,51.5,46.1,87,77,58,30.00,29.89,10,5,18,0.00
2013-10-2,67.6,59.8,54.4,59.9,54.5,48.2,91,83,73,29.98,29.85,14,8,30,0.00
2013-10-3,69.0,58.3,51.4,49.5,43.5,39.2,80,59,36,30.10,29.98,12,5,22,0.00
2013-10-4,60.3,55.1,52.1,54.7,47.6,38.7,96,78,49,30.09,30.03,9,2,16,0.61
2013-10-5,55.6,54.2,52.5,54.4,51.2,46.2,99,90,73,30.13,30.06,6,1,10,0.02
2013-10-6,52.6,48.6,46.3,52.3,48.3,46.0,100,99,97,30.18,30.11,12,6,22,0.84
2013-10-7,63.9,54.9,46.4,62.4,54.2,43.3,100,98,89,30.12,29.68,18,9,36,1.00
2013-10-8,55.9,47.7,40.6,43.6,39.7,34.0,94,75,52,30.39,29.88,13,4,33,0.00
2013-10-9,54.5,47.2,40.9,39.1,35.3,32.6,74,63,47,30.49,30.37,13,6,23,0.00
2013-10-10,58.8,52.5,43.5,42.2,29.6,4.8,75,43,13,30.37,30.17,8,3,12,0.00
2013-10-11,63.1,56.5,51.0,41.2,32.7,13.2,58,41,19,30.17,30.11,12,6,18,0.00
2013-10-12,56.7,50.9,45.2,50.3,46.2,38.0,99,85,54,30.36,30.15,16,11,25,0.00
2013-10-13,56.8,47.9,42.3,47.2,44.1,39.8,99,88,63,30.43,30.36,11,6,19,0.00
2013-10-14,62.3,52.4,41.4,50.8,47.0,39.6,97,83,60,30.37,30.25,7,2,16,0.01
2013-10-15,54.5,52.4,50.4,52.2,50.9,49.0,97,95,91,30.26,30.14,10,4,18,0.00
2013-10-16,57.3,50.7,47.5,50.5,47.6,45.0,98,90,72,30.14,29.85,8,3,18,0.00
2013-10-17,61.4,54.6,50.2,52.5,48.4,43.9,97,80,62,29.87,29.66,14,6,24,0.09
2013-10-18,56.5,47.8,42.4,55.6,43.6,34.8,98,86,65,29.88,29.55,15,9,35,0.27
2013-10-19,58.5,48.2,41.7,43.4,39.9,37.4,92,74,53,29.96,29.68,11,6,24,0.03
2013-10-20,47.0,41.9,38.0,44.6,37.0,33.1,93,83,67,30.02,29.64,16,8,31,0.06
2013-10-21,56.9,47.2,38.9,40.5,37.1,34.5,84,69,50,30.11,29.91,13,6,29,0.00
2013-10-22,49.9,42.6,34.4,44.3,38.2,28.6,95,85,71,29.91,29.74,13,7,27,0.16
2013-10-23,45.8,36.4,32.0,34.3,30.8,28.2,93,80,57,29.79,29.62,11,5,23,0.00
2013-10-24,36.9,32.3,28.0,31.2,28.9,25.5,93,87,71,29.91,29.68,15,9,34,0.02
2013-10-25,40.0,32.7,28.7,30.1,27.9,25.6,94,83,64,30.14,29.91,12,7,27,0.05
2013-10-26,40.4,35.9,32.2,31.1,28.3,24.3,95,75,54,30.14,29.84,15,6,31,0.00
2013-10-27,39.6,35.7,32.3,34.6,30.4,28.0,92,81,68,30.07,29.78,13,7,28,0.01
2013-10-28,46.6,35.0,26.6,36.4,28.8,18.5,90,78,61,30.38,30.05,16,6,33,0.00
2013-10-29,39.1,30.4,23.2,25.1,19.2,12.6,81,64,45,30.48,30.35,8,2,13,0.00
2013-10-30,39.5,34.9,30.4,36.0,29.0,11.3,95,81,42,30.35,30.23,12,6,24,0.06
2013-10-31,55.2,49.0,39.6,54.1,45.5,35.5,97,88,65,30.25,29.68,12,7,32,1.00
2013-11-1,59.0,54.3,43.9,58.4,50.4,39.7,98,87,67,29.68,29.36,21,12,43,1.84
2013-11-2,54.2,44.0,33.3,42.9,39.2,32.4,97,84,64,29.80,29.60,9,5,21,0.05
2013-11-3,35.5,27.8,21.2,32.5,21.2,14.4,97,77,56,30.48,29.80,6,3,17,0.00
2013-11-4,33.5,25.7,19.2,17.4,13.4,10.4,83,61,41,30.72,30.48,10,3,17,0.00
2013-11-5,42.2,34.0,23.1,34.0,24.7,13.7,81,69,56,30.70,30.46,12,3,23,0.00
2013-11-6,51.6,44.6,38.3,44.8,38.8,32.9,90,80,66,30.47,29.93,13,7,28,0.00
2013-11-7,51.2,42.0,27.2,48.3,39.5,21.3,97,91,74,29.94,29.70,15,8,33,0.67
2013-11-8,34.2,28.4,25.4,29.3,23.5,19.8,95,82,71,30.10,29.84,14,7,35,0.01
2013-11-9,34.4,28.9,22.5,28.3,23.0,18.1,94,79,66,30.23,29.98,10,4,27,0.01
2013-11-10,38.7,33.5,28.7,35.6,31.3,26.8,96,91,82,29.97,29.76,19,8,37,0.16
2013-11-11,37.4,32.4,26.8,30.7,26.8,23.6,89,80,66,30.09,29.86,15,9,36,0.01
2013-11-12,33.7,22.0,15.9,31.1,17.9,12.0,96,84,73,30.26,29.87,12,6,28,0.00
2013-11-13,23.9,18.5,10.9,19.5,12.7,8.1,89,78,60,30.34,30.12,19,8,39,0.01
2013-11-14,37.5,31.4,23.4,25.6,19.8,14.4,80,63,39,30.12,30.06,20,12,36,0.02
2013-11-15,49.3,41.5,35.0,22.1,16.7,13.9,44,37,25,30.19,30.10,14,8,27,0.03
2013-11-16,51.2,44.7,39.9,33.2,26.9,18.8,63,50,39,30.31,30.17,12,6,23,0.00
2013-11-17,51.4,46.3,37.9,50.5,42.8,25.7,100,89,44,30.26,29.74,23,9,37,0.10
2013-11-18,54.4,45.7,32.6,53.0,40.7,27.0,97,83,63,29.73,29.47,20,9,39,0.71
2013-11-19,32.3,25.3,17.7,27.7,20.0,12.6,92,80,71,30.38,29.64,17,7,42,0.00
2013-11-20,30.4,22.7,15.3,19.4,14.5,11.7,88,71,55,30.67,30.37,9,3,19,0.01
2013-11-21,40.7,31.2,22.6,30.6,16.4,4.4,88,56,23,30.66,30.35,16,3,26,0.00
2013-11-22,39.6,36.7,33.8,39.3,35.6,30.2,99,96,86,30.35,29.83,14,6,33,0.20
2013-11-23,37.6,25.8,15.6,37.1,20.7,6.8,98,81,65,29.93,29.78,16,10,35,0.02
2013-11-24,15.3,10.0,5.2,11.6,3.1,-2.4,90,73,61,30.26,29.83,14,9,35,0.00
2013-11-25,24.7,14.7,4.7,12.7,5.2,-4.6,74,65,48,30.43,30.23,17,7,32,0.00
2013-11-26,32.9,24.8,21.1,32.1,22.4,8.9,97,91,50,30.31,30.02,13,5,25,0.00
2013-11-27,46.3,33.2,24.9,46.0,32.5,23.4,99,97,94,30.02,29.33,26,9,37,1.38
2013-11-28,24.8,15.8,12.0,23.5,11.0,4.6,95,81,67,30.43,29.49,18,9,35,0.00
2013-11-29,21.8,14.1,9.9,13.0,7.9,3.9,90,77,62,30.76,30.43,10,4,18,0.00
2013-11-30,23.9,15.5,8.7,21.4,6.9,1.7,90,69,54,30.82,30.38,14,5,34,0.00
2013-12-1,34.1,29.3,22.6,28.9,26.4,19.9,95,89,81,30.40,30.05,15,3,33,0.02
2013-12-2,33.9,30.8,27.7,32.4,29.9,26.5,98,96,90,30.05,29.92,10,2,15,0.02
2013-12-3,37.5,32.8,27.9,33.7,30.1,26.2,94,90,84,29.97,29.89,7,3,15,0.03
2013-12-4,41.6,31.7,23.5,34.7,27.5,21.8,95,85,65,30.20,29.96,11,4,19,0.02
2013-12-5,52.8,45.3,33.9,51.1,44.0,31.3,100,95,88,30.16,29.86,15,8,35,0.01
2013-12-6,51.1,35.2,25.2,50.1,33.9,23.7,98,95,88,30.16,29.85,11,5,21,0.12
2013-12-7,26.3,22.8,18.0,23.8,18.7,11.1,95,84,72,30.47,30.10,8,4,22,0.00
2013-12-8,20.8,17.7,14.4,13.3,11.8,10.0,84,77,70,30.60,30.47,11,3,19,0.00
2013-12-9,32.2,24.5,15.5,31.7,23.0,13.2,100,94,83,30.47,29.87,26,13,47,0.01
2013-12-10,27.5,20.7,12.7,25.7,17.1,7.2,93,86,74,29.97,29.80,18,10,39,0.00
2013-12-11,18.2,15.3,11.6,13.3,10.9,6.3,100,83,70,30.17,29.96,17,11,34,0.00
2013-12-12,13.7,9.0,4.5,9.7,2.1,-2.8,90,73,55,30.28,30.02,13,6,29,0.00
2013-12-13,14.5,9.3,-2.4,12.4,5.8,-6.3,92,85,76,30.42,29.96,14,6,29,0.00
2013-12-14,8.6,1.0,-3.9,6.3,-2.8,-8.0,92,84,76,30.64,30.19,27,8,41,0.00
2013-12-15,22.3,15.6,8.5,21.0,13.8,6.1,95,92,89,30.19,29.56,29,13,42,0.00
2013-12-16,16.4,9.7,2.3,14.7,6.8,-1.4,93,88,83,30.20,29.70,16,10,36,0.00
2013-12-17,14.4,5.4,1.4,12.5,2.6,-2.0,100,88,84,30.25,30.05,10,3,20,0.00
2013-12-18,22.5,17.9,13.6,19.8,16.0,11.7,100,92,87,30.05,29.95,12,6,25,0.00
2013-12-19,31.4,25.4,19.6,29.1,22.3,17.7,94,88,80,30.10,29.94,21,11,38,0.00
2013-12-20,46.0,38.1,31.5,40.9,34.8,29.0,96,88,68,30.10,29.86,13,7,32,0.53
2013-12-21,52.9,48.0,42.1,50.1,46.6,41.0,99,95,84,29.88,29.79,15,9,37,0.50
2013-12-22,58.4,54.8,49.6,55.6,52.0,49.1,98,90,80,29.88,29.64,17,8,39,0.10
2013-12-23,50.9,39.4,25.5,49.5,38.7,24.0,98,97,94,30.12,29.86,9,4,22,0.23
2013-12-24,25.4,18.3,9.5,23.9,14.1,5.4,94,84,68,30.25,30.10,11,5,24,0.00
2013-12-25,13.8,8.1,-0.7,7.4,2.6,-4.1,92,78,65,30.55,30.23,13,4,26,0.00
2013-12-26,23.9,18.6,10.5,21.7,16.0,5.1,93,89,77,30.44,30.11,12,6,27,0.00
2013-12-27,22.5,19.7,15.4,20.2,16.9,12.7,93,88,78,30.26,30.18,13,8,29,0.00
2013-12-28,34.4,29.5,20.7,29.0,25.6,18.0,92,85,73,30.21,29.94,22,12,46,0.04
2013-12-29,41.6,35.1,29.3,33.1,29.4,27.0,98,81,58,30.01,29.57,13,4,24,0.11
2013-12-30,32.8,18.2,2.6,32.3,15.6,-0.9,98,89,81,30.18,29.58,12,6,30,0.00
2013-12-31,13.3,7.7,2.0,10.9,3.4,-5.2,90,82,67,30.18,30.04,16,6,37,0.00
2014-1-1,11.4,7.6,4.2,6.7,3.9,1.2,98,85,79,30.41,30.17,12,7,27,0.00
2014-1-2,7.3,3.1,-1.8,4.8,0.4,-4.9,99,88,86,30.39,29.94,17,9,27,0.00